sensor_id;sensor_type;location;lat;lon;timestamp;P1;durP1;ratioP1;P2;durP2;ratioP2
29550;SDS011;16488;52.396;10.696;2023-05-10T00:01:11;9.73;;;4.80;;
29550;SDS011;16488;52.396;10.696;2023-05-10T00:03:36;10.27;;;5.28;;
29550;SDS011;16488;52.396;10.696;2023-05-10T00:06:02;10.33;;;5.63;;
29550;SDS011;16488;52.396;10.696;2023-05-10T00:08:28;8.57;;;5.70;;
29550;SDS011;16488;52.396;10.696;2023-05-10T00:10:53;10.10;;;5.00;;
29550;SDS011;16488;52.396;10.696;2023-05-10T00:13:19;8.93;;;5.63;;
29550;SDS011;16488;52.396;10.696;2023-05-10T00:15:44;12.77;;;5.43;;
29550;SDS011;16488;52.396;10.696;2023-05-10T00:18:10;7.33;;;4.90;;
29550;SDS011;16488;52.396;10.696;2023-05-10T00:20:36;7.40;;;4.80;;
29550;SDS011;16488;52.396;10.696;2023-05-10T00:23:01;13.40;;;5.10;;
29550;SDS011;16488;52.396;10.696;2023-05-10T00:25:27;7.73;;;5.27;;
29550;SDS011;16488;52.396;10.696;2023-05-10T00:27:52;8.90;;;5.63;;
29550;SDS011;16488;52.396;10.696;2023-05-10T00:30:20;9.82;;;5.97;;
29550;SDS011;16488;52.396;10.696;2023-05-10T00:32:46;6.88;;;5.15;;
29550;SDS011;16488;52.396;10.696;2023-05-10T00:35:13;6.72;;;4.78;;
29550;SDS011;16488;52.396;10.696;2023-05-10T00:37:38;9.27;;;4.93;;
29550;SDS011;16488;52.396;10.696;2023-05-10T00:40:04;9.50;;;4.63;;
29550;SDS011;16488;52.396;10.696;2023-05-10T00:42:30;7.20;;;4.47;;
29550;SDS011;16488;52.396;10.696;2023-05-10T00:44:56;6.00;;;4.95;;
29550;SDS011;16488;52.396;10.696;2023-05-10T00:47:22;11.27;;;5.22;;
29550;SDS011;16488;52.396;10.696;2023-05-10T00:49:48;8.68;;;4.93;;
29550;SDS011;16488;52.396;10.696;2023-05-10T00:52:14;9.57;;;5.10;;
29550;SDS011;16488;52.396;10.696;2023-05-10T00:54:40;7.15;;;5.05;;
29550;SDS011;16488;52.396;10.696;2023-05-10T00:57:06;7.53;;;5.20;;
29550;SDS011;16488;52.396;10.696;2023-05-10T00:59:31;9.93;;;5.07;;
29550;SDS011;16488;52.396;10.696;2023-05-10T01:01:57;9.52;;;6.90;;
29550;SDS011;16488;52.396;10.696;2023-05-10T01:04:23;7.10;;;5.07;;
29550;SDS011;16488;52.396;10.696;2023-05-10T01:06:50;7.63;;;5.00;;
29550;SDS011;16488;52.396;10.696;2023-05-10T01:09:17;7.78;;;4.90;;
29550;SDS011;16488;52.396;10.696;2023-05-10T01:11:43;9.93;;;4.80;;
29550;SDS011;16488;52.396;10.696;2023-05-10T01:14:10;6.93;;;5.00;;
29550;SDS011;16488;52.396;10.696;2023-05-10T01:16:39;8.13;;;5.38;;
29550;SDS011;16488;52.396;10.696;2023-05-10T01:19:11;6.90;;;5.43;;
29550;SDS011;16488;52.396;10.696;2023-05-10T01:21:43;7.97;;;5.47;;
29550;SDS011;16488;52.396;10.696;2023-05-10T01:24:35;7.65;;;5.32;;
29550;SDS011;16488;52.396;10.696;2023-05-10T01:27:25;8.02;;;5.05;;
29550;SDS011;16488;52.396;10.696;2023-05-10T01:30:32;8.00;;;5.32;;
29550;SDS011;16488;52.396;10.696;2023-05-10T01:35:40;13.23;;;6.00;;
29550;SDS011;16488;52.396;10.696;2023-05-10T01:38:17;8.63;;;5.80;;
29550;SDS011;16488;52.396;10.696;2023-05-10T01:43:18;9.13;;;5.63;;
29550;SDS011;16488;52.396;10.696;2023-05-10T01:45:53;8.75;;;5.80;;
29550;SDS011;16488;52.396;10.696;2023-05-10T01:48:48;9.00;;;5.22;;
29550;SDS011;16488;52.396;10.696;2023-05-10T01:51:24;6.40;;;5.10;;
29550;SDS011;16488;52.396;10.696;2023-05-10T01:53:56;9.38;;;5.75;;
29550;SDS011;16488;52.396;10.696;2023-05-10T01:56:25;8.23;;;5.25;;
29550;SDS011;16488;52.396;10.696;2023-05-10T01:58:53;7.32;;;5.07;;
29550;SDS011;16488;52.396;10.696;2023-05-10T02:01:20;10.27;;;5.53;;
29550;SDS011;16488;52.396;10.696;2023-05-10T02:06:13;10.90;;;6.18;;
29550;SDS011;16488;52.396;10.696;2023-05-10T02:08:41;12.73;;;4.50;;
29550;SDS011;16488;52.396;10.696;2023-05-10T02:11:10;14.32;;;5.53;;
29550;SDS011;16488;52.396;10.696;2023-05-10T02:13:38;5.85;;;4.88;;
29550;SDS011;16488;52.396;10.696;2023-05-10T02:16:04;7.50;;;4.70;;
29550;SDS011;16488;52.396;10.696;2023-05-10T02:18:30;7.25;;;5.25;;
29550;SDS011;16488;52.396;10.696;2023-05-10T02:20:57;11.05;;;5.88;;
29550;SDS011;16488;52.396;10.696;2023-05-10T02:23:23;9.90;;;5.80;;
29550;SDS011;16488;52.396;10.696;2023-05-10T02:25:50;7.97;;;5.40;;
29550;SDS011;16488;52.396;10.696;2023-05-10T02:28:18;9.98;;;5.63;;
29550;SDS011;16488;52.396;10.696;2023-05-10T02:30:46;9.75;;;5.97;;
29550;SDS011;16488;52.396;10.696;2023-05-10T02:33:12;11.98;;;5.82;;
29550;SDS011;16488;52.396;10.696;2023-05-10T02:35:39;10.05;;;5.97;;
29550;SDS011;16488;52.396;10.696;2023-05-10T02:38:06;8.23;;;5.72;;
29550;SDS011;16488;52.396;10.696;2023-05-10T02:42:58;9.13;;;4.95;;
29550;SDS011;16488;52.396;10.696;2023-05-10T02:45:27;8.50;;;5.13;;
29550;SDS011;16488;52.396;10.696;2023-05-10T02:47:56;10.52;;;5.65;;
29550;SDS011;16488;52.396;10.696;2023-05-10T02:50:22;6.63;;;5.53;;
29550;SDS011;16488;52.396;10.696;2023-05-10T02:52:51;7.68;;;5.85;;
29550;SDS011;16488;52.396;10.696;2023-05-10T02:55:19;9.88;;;6.05;;
29550;SDS011;16488;52.396;10.696;2023-05-10T02:57:57;9.45;;;5.53;;
29550;SDS011;16488;52.396;10.696;2023-05-10T03:00:25;6.90;;;5.20;;
29550;SDS011;16488;52.396;10.696;2023-05-10T03:02:51;11.13;;;6.25;;
29550;SDS011;16488;52.396;10.696;2023-05-10T03:05:17;8.25;;;5.93;;
29550;SDS011;16488;52.396;10.696;2023-05-10T03:07:43;9.40;;;6.82;;
29550;SDS011;16488;52.396;10.696;2023-05-10T03:18:12;10.35;;;5.65;;
29550;SDS011;16488;52.396;10.696;2023-05-10T03:20:48;10.43;;;6.53;;
29550;SDS011;16488;52.396;10.696;2023-05-10T03:23:24;12.85;;;6.18;;
29550;SDS011;16488;52.396;10.696;2023-05-10T03:25:54;10.13;;;6.25;;
29550;SDS011;16488;52.396;10.696;2023-05-10T03:28:20;8.48;;;5.72;;
29550;SDS011;16488;52.396;10.696;2023-05-10T03:30:46;10.25;;;7.15;;
29550;SDS011;16488;52.396;10.696;2023-05-10T03:33:13;8.73;;;5.97;;
29550;SDS011;16488;52.396;10.696;2023-05-10T03:35:39;17.65;;;6.45;;
29550;SDS011;16488;52.396;10.696;2023-05-10T03:38:04;7.45;;;5.72;;
29550;SDS011;16488;52.396;10.696;2023-05-10T03:40:30;11.75;;;6.35;;
29550;SDS011;16488;52.396;10.696;2023-05-10T03:42:57;10.32;;;5.28;;
29550;SDS011;16488;52.396;10.696;2023-05-10T03:45:26;13.35;;;6.35;;
29550;SDS011;16488;52.396;10.696;2023-05-10T03:47:51;11.90;;;6.57;;
29550;SDS011;16488;52.396;10.696;2023-05-10T03:50:17;13.52;;;6.03;;
29550;SDS011;16488;52.396;10.696;2023-05-10T03:52:43;9.60;;;5.80;;
29550;SDS011;16488;52.396;10.696;2023-05-10T03:55:09;8.50;;;6.00;;
29550;SDS011;16488;52.396;10.696;2023-05-10T03:57:35;10.63;;;5.90;;
29550;SDS011;16488;52.396;10.696;2023-05-10T04:00:01;9.85;;;6.45;;
29550;SDS011;16488;52.396;10.696;2023-05-10T04:02:27;11.32;;;6.07;;
29550;SDS011;16488;52.396;10.696;2023-05-10T04:04:54;9.70;;;6.93;;
29550;SDS011;16488;52.396;10.696;2023-05-10T04:07:20;11.43;;;6.37;;
29550;SDS011;16488;52.396;10.696;2023-05-10T04:09:46;7.97;;;5.77;;
29550;SDS011;16488;52.396;10.696;2023-05-10T04:14:37;11.50;;;6.82;;
29550;SDS011;16488;52.396;10.696;2023-05-10T04:17:03;9.67;;;6.40;;
29550;SDS011;16488;52.396;10.696;2023-05-10T04:19:31;8.25;;;6.03;;
29550;SDS011;16488;52.396;10.696;2023-05-10T04:21:58;8.00;;;6.03;;
29550;SDS011;16488;52.396;10.696;2023-05-10T04:24:23;12.73;;;6.28;;
29550;SDS011;16488;52.396;10.696;2023-05-10T04:26:49;11.88;;;6.45;;
29550;SDS011;16488;52.396;10.696;2023-05-10T04:29:15;9.52;;;6.20;;
29550;SDS011;16488;52.396;10.696;2023-05-10T04:31:41;8.02;;;5.65;;
29550;SDS011;16488;52.396;10.696;2023-05-10T04:34:07;9.53;;;5.40;;
29550;SDS011;16488;52.396;10.696;2023-05-10T04:36:32;10.07;;;6.20;;
29550;SDS011;16488;52.396;10.696;2023-05-10T04:39:00;9.57;;;6.05;;
29550;SDS011;16488;52.396;10.696;2023-05-10T04:41:27;9.00;;;5.88;;
29550;SDS011;16488;52.396;10.696;2023-05-10T04:43:53;10.60;;;6.70;;
29550;SDS011;16488;52.396;10.696;2023-05-10T04:46:18;15.13;;;5.90;;
29550;SDS011;16488;52.396;10.696;2023-05-10T04:48:44;10.93;;;5.90;;
29550;SDS011;16488;52.396;10.696;2023-05-10T04:51:10;8.00;;;6.22;;
29550;SDS011;16488;52.396;10.696;2023-05-10T04:53:36;13.18;;;6.65;;
29550;SDS011;16488;52.396;10.696;2023-05-10T04:56:01;7.97;;;6.38;;
29550;SDS011;16488;52.396;10.696;2023-05-10T04:58:27;10.15;;;6.45;;
29550;SDS011;16488;52.396;10.696;2023-05-10T05:00:53;10.52;;;6.43;;
29550;SDS011;16488;52.396;10.696;2023-05-10T05:03:19;16.63;;;7.00;;
29550;SDS011;16488;52.396;10.696;2023-05-10T05:05:44;9.77;;;6.43;;
29550;SDS011;16488;52.396;10.696;2023-05-10T05:08:10;8.67;;;5.73;;
29550;SDS011;16488;52.396;10.696;2023-05-10T05:10:35;8.73;;;5.65;;
29550;SDS011;16488;52.396;10.696;2023-05-10T05:13:01;9.50;;;6.22;;
29550;SDS011;16488;52.396;10.696;2023-05-10T05:15:27;12.87;;;5.93;;
29550;SDS011;16488;52.396;10.696;2023-05-10T05:17:52;9.37;;;6.50;;
29550;SDS011;16488;52.396;10.696;2023-05-10T05:20:18;8.57;;;6.38;;
29550;SDS011;16488;52.396;10.696;2023-05-10T05:22:44;15.93;;;6.20;;
29550;SDS011;16488;52.396;10.696;2023-05-10T05:25:09;7.10;;;5.60;;
29550;SDS011;16488;52.396;10.696;2023-05-10T05:27:36;10.10;;;6.70;;
29550;SDS011;16488;52.396;10.696;2023-05-10T05:30:02;9.63;;;6.47;;
29550;SDS011;16488;52.396;10.696;2023-05-10T05:32:29;9.75;;;5.78;;
29550;SDS011;16488;52.396;10.696;2023-05-10T05:34:55;12.60;;;6.90;;
29550;SDS011;16488;52.396;10.696;2023-05-10T05:37:21;9.00;;;6.35;;
29550;SDS011;16488;52.396;10.696;2023-05-10T05:42:13;8.07;;;5.50;;
29550;SDS011;16488;52.396;10.696;2023-05-10T05:47:06;10.68;;;5.80;;
29550;SDS011;16488;52.396;10.696;2023-05-10T05:52:00;8.95;;;6.55;;
29550;SDS011;16488;52.396;10.696;2023-05-10T05:54:27;10.57;;;6.63;;
29550;SDS011;16488;52.396;10.696;2023-05-10T05:56:54;10.75;;;6.75;;
29550;SDS011;16488;52.396;10.696;2023-05-10T05:59:20;12.48;;;6.53;;
29550;SDS011;16488;52.396;10.696;2023-05-10T06:01:46;10.02;;;6.43;;
29550;SDS011;16488;52.396;10.696;2023-05-10T06:04:11;11.80;;;6.15;;
29550;SDS011;16488;52.396;10.696;2023-05-10T06:06:37;8.38;;;6.20;;
29550;SDS011;16488;52.396;10.696;2023-05-10T06:09:03;9.97;;;5.67;;
29550;SDS011;16488;52.396;10.696;2023-05-10T06:11:29;10.15;;;6.38;;
29550;SDS011;16488;52.396;10.696;2023-05-10T06:13:57;11.32;;;6.20;;
29550;SDS011;16488;52.396;10.696;2023-05-10T06:16:23;9.60;;;6.57;;
29550;SDS011;16488;52.396;10.696;2023-05-10T06:18:48;12.47;;;7.23;;
29550;SDS011;16488;52.396;10.696;2023-05-10T06:21:14;13.17;;;7.33;;
29550;SDS011;16488;52.396;10.696;2023-05-10T06:23:40;15.82;;;6.60;;
29550;SDS011;16488;52.396;10.696;2023-05-10T06:26:05;8.95;;;6.47;;
29550;SDS011;16488;52.396;10.696;2023-05-10T06:28:31;11.83;;;6.87;;
29550;SDS011;16488;52.396;10.696;2023-05-10T06:30:58;12.07;;;6.32;;
29550;SDS011;16488;52.396;10.696;2023-05-10T06:33:24;10.70;;;6.40;;
29550;SDS011;16488;52.396;10.696;2023-05-10T06:35:49;11.40;;;6.97;;
29550;SDS011;16488;52.396;10.696;2023-05-10T06:38:15;10.30;;;7.17;;
29550;SDS011;16488;52.396;10.696;2023-05-10T06:40:41;12.95;;;6.22;;
29550;SDS011;16488;52.396;10.696;2023-05-10T06:43:07;20.63;;;6.90;;
29550;SDS011;16488;52.396;10.696;2023-05-10T06:45:33;9.93;;;6.72;;
29550;SDS011;16488;52.396;10.696;2023-05-10T06:47:58;12.40;;;7.18;;
29550;SDS011;16488;52.396;10.696;2023-05-10T06:50:24;15.13;;;6.53;;
29550;SDS011;16488;52.396;10.696;2023-05-10T06:52:50;9.33;;;6.47;;
29550;SDS011;16488;52.396;10.696;2023-05-10T06:55:15;11.45;;;6.72;;
29550;SDS011;16488;52.396;10.696;2023-05-10T06:57:41;13.47;;;7.30;;
29550;SDS011;16488;52.396;10.696;2023-05-10T07:00:07;10.90;;;6.77;;
29550;SDS011;16488;52.396;10.696;2023-05-10T07:02:34;10.07;;;6.97;;
29550;SDS011;16488;52.396;10.696;2023-05-10T07:05:00;13.13;;;6.53;;
29550;SDS011;16488;52.396;10.696;2023-05-10T07:07:26;14.90;;;6.70;;
29550;SDS011;16488;52.396;10.696;2023-05-10T07:09:51;10.73;;;6.05;;
29550;SDS011;16488;52.396;10.696;2023-05-10T07:12:17;13.75;;;7.22;;
29550;SDS011;16488;52.396;10.696;2023-05-10T07:14:42;12.10;;;8.02;;
29550;SDS011;16488;52.396;10.696;2023-05-10T07:17:08;14.93;;;6.63;;
29550;SDS011;16488;52.396;10.696;2023-05-10T07:19:34;12.23;;;7.57;;
29550;SDS011;16488;52.396;10.696;2023-05-10T07:22:00;14.13;;;6.60;;
29550;SDS011;16488;52.396;10.696;2023-05-10T07:24:26;11.88;;;6.97;;
29550;SDS011;16488;52.396;10.696;2023-05-10T07:26:52;12.77;;;7.50;;
29550;SDS011;16488;52.396;10.696;2023-05-10T07:29:18;10.53;;;7.03;;
29550;SDS011;16488;52.396;10.696;2023-05-10T07:31:44;17.33;;;6.45;;
29550;SDS011;16488;52.396;10.696;2023-05-10T07:34:10;10.48;;;7.30;;
29550;SDS011;16488;52.396;10.696;2023-05-10T07:36:35;12.57;;;7.55;;
29550;SDS011;16488;52.396;10.696;2023-05-10T07:39:01;9.80;;;6.93;;
29550;SDS011;16488;52.396;10.696;2023-05-10T07:41:27;13.25;;;7.05;;
29550;SDS011;16488;52.396;10.696;2023-05-10T07:43:52;8.85;;;6.68;;
29550;SDS011;16488;52.396;10.696;2023-05-10T07:46:18;9.97;;;6.77;;
29550;SDS011;16488;52.396;10.696;2023-05-10T07:48:44;18.05;;;7.55;;
29550;SDS011;16488;52.396;10.696;2023-05-10T07:51:10;14.38;;;6.97;;
29550;SDS011;16488;52.396;10.696;2023-05-10T07:53:37;14.27;;;7.53;;
29550;SDS011;16488;52.396;10.696;2023-05-10T07:59:04;9.98;;;7.13;;
29550;SDS011;16488;52.396;10.696;2023-05-10T08:01:31;12.70;;;7.75;;
29550;SDS011;16488;52.396;10.696;2023-05-10T08:03:58;12.75;;;7.40;;
29550;SDS011;16488;52.396;10.696;2023-05-10T08:06:24;11.88;;;8.02;;
29550;SDS011;16488;52.396;10.696;2023-05-10T08:08:52;17.92;;;7.43;;
29550;SDS011;16488;52.396;10.696;2023-05-10T08:11:19;9.80;;;6.72;;
29550;SDS011;16488;52.396;10.696;2023-05-10T08:13:45;12.07;;;8.07;;
29550;SDS011;16488;52.396;10.696;2023-05-10T08:16:12;11.55;;;7.53;;
29550;SDS011;16488;52.396;10.696;2023-05-10T08:18:38;15.15;;;8.80;;
29550;SDS011;16488;52.396;10.696;2023-05-10T08:21:04;11.15;;;8.23;;
29550;SDS011;16488;52.396;10.696;2023-05-10T08:23:30;11.48;;;7.50;;
29550;SDS011;16488;52.396;10.696;2023-05-10T08:25:55;12.27;;;8.68;;
29550;SDS011;16488;52.396;10.696;2023-05-10T08:28:21;19.92;;;8.82;;
29550;SDS011;16488;52.396;10.696;2023-05-10T08:30:47;13.77;;;8.13;;
29550;SDS011;16488;52.396;10.696;2023-05-10T08:33:12;15.17;;;8.63;;
29550;SDS011;16488;52.396;10.696;2023-05-10T08:35:38;11.38;;;7.65;;
29550;SDS011;16488;52.396;10.696;2023-05-10T08:38:03;16.33;;;8.27;;
29550;SDS011;16488;52.396;10.696;2023-05-10T08:40:29;12.55;;;7.32;;
29550;SDS011;16488;52.396;10.696;2023-05-10T08:43:10;13.82;;;7.88;;
29550;SDS011;16488;52.396;10.696;2023-05-10T08:45:38;15.57;;;8.25;;
29550;SDS011;16488;52.396;10.696;2023-05-10T08:48:06;11.68;;;8.20;;
29550;SDS011;16488;52.396;10.696;2023-05-10T08:50:36;13.65;;;9.23;;
29550;SDS011;16488;52.396;10.696;2023-05-10T08:53:09;13.20;;;8.65;;
29550;SDS011;16488;52.396;10.696;2023-05-10T08:55:36;12.75;;;8.88;;
29550;SDS011;16488;52.396;10.696;2023-05-10T08:58:04;11.90;;;9.27;;
29550;SDS011;16488;52.396;10.696;2023-05-10T09:00:30;13.90;;;9.45;;
29550;SDS011;16488;52.396;10.696;2023-05-10T09:02:58;13.25;;;9.88;;
29550;SDS011;16488;52.396;10.696;2023-05-10T09:05:24;14.57;;;10.10;;
29550;SDS011;16488;52.396;10.696;2023-05-10T09:07:50;16.38;;;11.52;;
29550;SDS011;16488;52.396;10.696;2023-05-10T09:10:16;16.70;;;11.05;;
29550;SDS011;16488;52.396;10.696;2023-05-10T09:12:42;16.50;;;12.15;;
29550;SDS011;16488;52.396;10.696;2023-05-10T09:15:10;17.65;;;11.60;;
29550;SDS011;16488;52.396;10.696;2023-05-10T09:17:37;18.00;;;10.60;;
29550;SDS011;16488;52.396;10.696;2023-05-10T09:20:05;14.93;;;11.73;;
29550;SDS011;16488;52.396;10.696;2023-05-10T09:22:33;22.35;;;13.13;;
29550;SDS011;16488;52.396;10.696;2023-05-10T09:27:36;21.15;;;12.75;;
29550;SDS011;16488;52.396;10.696;2023-05-10T09:30:03;22.58;;;13.63;;
29550;SDS011;16488;52.396;10.696;2023-05-10T09:32:43;18.13;;;13.18;;
29550;SDS011;16488;52.396;10.696;2023-05-10T09:35:11;16.08;;;12.50;;
29550;SDS011;16488;52.396;10.696;2023-05-10T09:37:40;17.95;;;13.43;;
29550;SDS011;16488;52.396;10.696;2023-05-10T09:40:12;23.60;;;14.70;;
29550;SDS011;16488;52.396;10.696;2023-05-10T09:42:43;17.95;;;12.65;;
29550;SDS011;16488;52.396;10.696;2023-05-10T09:45:23;19.73;;;13.48;;
29550;SDS011;16488;52.396;10.696;2023-05-10T09:47:50;17.45;;;12.93;;
29550;SDS011;16488;52.396;10.696;2023-05-10T09:50:16;19.25;;;13.50;;
29550;SDS011;16488;52.396;10.696;2023-05-10T09:55:19;21.02;;;14.52;;
29550;SDS011;16488;52.396;10.696;2023-05-10T09:57:46;24.42;;;14.98;;
29550;SDS011;16488;52.396;10.696;2023-05-10T10:00:17;17.83;;;13.80;;
29550;SDS011;16488;52.396;10.696;2023-05-10T10:02:47;23.23;;;15.48;;
29550;SDS011;16488;52.396;10.696;2023-05-10T10:05:19;20.05;;;16.25;;
29550;SDS011;16488;52.396;10.696;2023-05-10T10:07:45;19.42;;;15.45;;
29550;SDS011;16488;52.396;10.696;2023-05-10T10:10:10;24.58;;;15.77;;
29550;SDS011;16488;52.396;10.696;2023-05-10T10:12:38;25.52;;;16.35;;
29550;SDS011;16488;52.396;10.696;2023-05-10T10:15:04;20.05;;;15.15;;
29550;SDS011;16488;52.396;10.696;2023-05-10T10:17:32;21.95;;;15.88;;
29550;SDS011;16488;52.396;10.696;2023-05-10T10:20:00;21.83;;;15.82;;
29550;SDS011;16488;52.396;10.696;2023-05-10T10:22:27;20.27;;;15.50;;
29550;SDS011;16488;52.396;10.696;2023-05-10T10:24:54;25.00;;;16.60;;
29550;SDS011;16488;52.396;10.696;2023-05-10T10:30:22;17.48;;;14.38;;
29550;SDS011;16488;52.396;10.696;2023-05-10T10:35:40;19.38;;;14.93;;
29550;SDS011;16488;52.396;10.696;2023-05-10T10:38:08;16.73;;;12.45;;
29550;SDS011;16488;52.396;10.696;2023-05-10T10:40:34;17.05;;;12.48;;
29550;SDS011;16488;52.396;10.696;2023-05-10T10:43:21;16.08;;;11.55;;
29550;SDS011;16488;52.396;10.696;2023-05-10T10:46:29;9.75;;;7.90;;
29550;SDS011;16488;52.396;10.696;2023-05-10T10:48:40;8.27;;;7.13;;
29550;SDS011;16488;52.396;10.696;2023-05-10T10:51:13;7.85;;;6.60;;
29550;SDS011;16488;52.396;10.696;2023-05-10T10:53:39;8.30;;;5.85;;
29550;SDS011;16488;52.396;10.696;2023-05-10T10:56:10;7.88;;;5.30;;
29550;SDS011;16488;52.396;10.696;2023-05-10T10:58:38;4.85;;;4.30;;
29550;SDS011;16488;52.396;10.696;2023-05-10T11:03:38;5.35;;;4.55;;
29550;SDS011;16488;52.396;10.696;2023-05-10T11:06:04;5.70;;;4.35;;
29550;SDS011;16488;52.396;10.696;2023-05-10T11:08:30;4.35;;;3.90;;
29550;SDS011;16488;52.396;10.696;2023-05-10T11:13:48;4.35;;;3.95;;
29550;SDS011;16488;52.396;10.696;2023-05-10T11:16:14;4.13;;;2.97;;
29550;SDS011;16488;52.396;10.696;2023-05-10T11:19:04;2.92;;;2.63;;
29550;SDS011;16488;52.396;10.696;2023-05-10T11:21:33;4.22;;;2.80;;
29550;SDS011;16488;52.396;10.696;2023-05-10T11:24:12;3.55;;;3.05;;
29550;SDS011;16488;52.396;10.696;2023-05-10T11:26:39;3.45;;;2.63;;
29550;SDS011;16488;52.396;10.696;2023-05-10T11:29:05;3.15;;;2.85;;
29550;SDS011;16488;52.396;10.696;2023-05-10T11:31:31;4.57;;;2.08;;
29550;SDS011;16488;52.396;10.696;2023-05-10T11:33:57;2.72;;;1.90;;
29550;SDS011;16488;52.396;10.696;2023-05-10T11:36:25;2.83;;;2.20;;
29550;SDS011;16488;52.396;10.696;2023-05-10T11:38:52;3.38;;;2.10;;
29550;SDS011;16488;52.396;10.696;2023-05-10T11:41:19;4.72;;;2.38;;
29550;SDS011;16488;52.396;10.696;2023-05-10T11:43:54;3.65;;;2.95;;
29550;SDS011;16488;52.396;10.696;2023-05-10T11:46:21;3.67;;;2.60;;
29550;SDS011;16488;52.396;10.696;2023-05-10T11:48:52;3.55;;;2.72;;
29550;SDS011;16488;52.396;10.696;2023-05-10T11:51:20;5.03;;;3.45;;
29550;SDS011;16488;52.396;10.696;2023-05-10T11:53:52;4.18;;;3.08;;
29550;SDS011;16488;52.396;10.696;2023-05-10T11:56:18;3.53;;;2.97;;
29550;SDS011;16488;52.396;10.696;2023-05-10T11:58:53;4.28;;;3.88;;
29550;SDS011;16488;52.396;10.696;2023-05-10T12:01:20;5.50;;;3.90;;
29550;SDS011;16488;52.396;10.696;2023-05-10T12:03:47;6.28;;;5.07;;
29550;SDS011;16488;52.396;10.696;2023-05-10T12:06:13;7.95;;;6.95;;
29550;SDS011;16488;52.396;10.696;2023-05-10T12:08:43;6.97;;;6.20;;
29550;SDS011;16488;52.396;10.696;2023-05-10T12:11:10;9.18;;;6.80;;
29550;SDS011;16488;52.396;10.696;2023-05-10T12:13:39;9.75;;;5.88;;
29550;SDS011;16488;52.396;10.696;2023-05-10T12:16:19;6.40;;;5.80;;
29550;SDS011;16488;52.396;10.696;2023-05-10T12:18:50;7.00;;;6.30;;
29550;SDS011;16488;52.396;10.696;2023-05-10T12:21:16;5.75;;;5.25;;
29550;SDS011;16488;52.396;10.696;2023-05-10T12:23:43;9.55;;;5.60;;
29550;SDS011;16488;52.396;10.696;2023-05-10T12:26:11;6.40;;;5.80;;
29550;SDS011;16488;52.396;10.696;2023-05-10T12:28:37;8.55;;;6.13;;
29550;SDS011;16488;52.396;10.696;2023-05-10T12:31:05;7.22;;;6.32;;
29550;SDS011;16488;52.396;10.696;2023-05-10T12:33:38;11.77;;;6.03;;
29550;SDS011;16488;52.396;10.696;2023-05-10T12:36:06;6.40;;;5.80;;
29550;SDS011;16488;52.396;10.696;2023-05-10T12:38:33;7.18;;;6.50;;
29550;SDS011;16488;52.396;10.696;2023-05-10T12:41:03;6.63;;;5.88;;
29550;SDS011;16488;52.396;10.696;2023-05-10T12:43:31;6.38;;;5.70;;
29550;SDS011;16488;52.396;10.696;2023-05-10T12:45:57;6.78;;;6.07;;
29550;SDS011;16488;52.396;10.696;2023-05-10T12:48:23;7.80;;;6.68;;
29550;SDS011;16488;52.396;10.696;2023-05-10T12:50:49;6.60;;;5.90;;
29550;SDS011;16488;52.396;10.696;2023-05-10T12:53:15;6.00;;;5.38;;
29550;SDS011;16488;52.396;10.696;2023-05-10T12:55:41;5.78;;;5.18;;
29550;SDS011;16488;52.396;10.696;2023-05-10T13:00:33;3.47;;;3.15;;
29550;SDS011;16488;52.396;10.696;2023-05-10T13:02:59;2.95;;;2.55;;
29550;SDS011;16488;52.396;10.696;2023-05-10T13:05:24;4.72;;;3.63;;
29550;SDS011;16488;52.396;10.696;2023-05-10T13:07:50;3.60;;;3.30;;
29550;SDS011;16488;52.396;10.696;2023-05-10T13:10:16;7.40;;;3.63;;
29550;SDS011;16488;52.396;10.696;2023-05-10T13:12:41;3.55;;;2.47;;
29550;SDS011;16488;52.396;10.696;2023-05-10T13:15:07;2.95;;;2.65;;
29550;SDS011;16488;52.396;10.696;2023-05-10T13:17:33;4.63;;;2.90;;
29550;SDS011;16488;52.396;10.696;2023-05-10T13:19:58;3.47;;;3.08;;
29550;SDS011;16488;52.396;10.696;2023-05-10T13:22:24;4.15;;;2.95;;
29550;SDS011;16488;52.396;10.696;2023-05-10T13:24:50;2.87;;;2.60;;
29550;SDS011;16488;52.396;10.696;2023-05-10T13:27:15;5.23;;;4.27;;
29550;SDS011;16488;52.396;10.696;2023-05-10T13:29:41;3.72;;;3.40;;
29550;SDS011;16488;52.396;10.696;2023-05-10T13:32:06;3.60;;;3.20;;
29550;SDS011;16488;52.396;10.696;2023-05-10T13:34:32;3.97;;;3.10;;
29550;SDS011;16488;52.396;10.696;2023-05-10T13:36:58;3.83;;;3.45;;
29550;SDS011;16488;52.396;10.696;2023-05-10T13:39:23;4.03;;;3.10;;
29550;SDS011;16488;52.396;10.696;2023-05-10T13:41:49;7.03;;;4.07;;
29550;SDS011;16488;52.396;10.696;2023-05-10T13:44:15;5.30;;;4.60;;
29550;SDS011;16488;52.396;10.696;2023-05-10T13:46:41;5.40;;;3.92;;
29550;SDS011;16488;52.396;10.696;2023-05-10T13:49:10;5.35;;;4.07;;
29550;SDS011;16488;52.396;10.696;2023-05-10T13:51:35;5.43;;;4.65;;
29550;SDS011;16488;52.396;10.696;2023-05-10T13:54:04;5.67;;;4.27;;
29550;SDS011;16488;52.396;10.696;2023-05-10T13:56:30;5.93;;;3.60;;
29550;SDS011;16488;52.396;10.696;2023-05-10T13:58:56;4.57;;;3.85;;
29550;SDS011;16488;52.396;10.696;2023-05-10T14:01:23;4.45;;;3.97;;
29550;SDS011;16488;52.396;10.696;2023-05-10T14:03:49;4.30;;;3.90;;
29550;SDS011;16488;52.396;10.696;2023-05-10T14:06:14;6.53;;;4.97;;
29550;SDS011;16488;52.396;10.696;2023-05-10T14:08:40;9.20;;;5.00;;
29550;SDS011;16488;52.396;10.696;2023-05-10T14:11:05;6.82;;;4.03;;
29550;SDS011;16488;52.396;10.696;2023-05-10T14:13:31;9.07;;;4.60;;
29550;SDS011;16488;52.396;10.696;2023-05-10T14:15:57;4.40;;;3.60;;
29550;SDS011;16488;52.396;10.696;2023-05-10T14:18:25;4.03;;;3.58;;
29550;SDS011;16488;52.396;10.696;2023-05-10T14:20:53;4.13;;;3.17;;
29550;SDS011;16488;52.396;10.696;2023-05-10T14:23:21;4.53;;;3.58;;
29550;SDS011;16488;52.396;10.696;2023-05-10T14:25:50;6.75;;;3.63;;
29550;SDS011;16488;52.396;10.696;2023-05-10T14:28:16;6.15;;;3.35;;
29550;SDS011;16488;52.396;10.696;2023-05-10T14:30:45;4.88;;;3.42;;
29550;SDS011;16488;52.396;10.696;2023-05-10T14:33:11;3.50;;;3.00;;
29550;SDS011;16488;52.396;10.696;2023-05-10T14:35:38;2.35;;;2.15;;
29550;SDS011;16488;52.396;10.696;2023-05-10T14:38:04;3.85;;;2.33;;
29550;SDS011;16488;52.396;10.696;2023-05-10T14:40:29;3.97;;;2.83;;
29550;SDS011;16488;52.396;10.696;2023-05-10T14:42:55;4.03;;;2.55;;
29550;SDS011;16488;52.396;10.696;2023-05-10T14:45:21;10.60;;;2.42;;
29550;SDS011;16488;52.396;10.696;2023-05-10T14:47:47;3.53;;;2.35;;
29550;SDS011;16488;52.396;10.696;2023-05-10T14:50:13;5.40;;;2.35;;
29550;SDS011;16488;52.396;10.696;2023-05-10T14:52:39;4.35;;;2.33;;
29550;SDS011;16488;52.396;10.696;2023-05-10T14:55:05;2.25;;;2.05;;
29550;SDS011;16488;52.396;10.696;2023-05-10T14:57:32;2.78;;;2.10;;
29550;SDS011;16488;52.396;10.696;2023-05-10T14:59:58;3.42;;;2.05;;
29550;SDS011;16488;52.396;10.696;2023-05-10T15:02:23;3.75;;;2.50;;
29550;SDS011;16488;52.396;10.696;2023-05-10T15:04:49;4.03;;;2.50;;
29550;SDS011;16488;52.396;10.696;2023-05-10T15:07:15;2.63;;;1.63;;
29550;SDS011;16488;52.396;10.696;2023-05-10T15:09:43;3.10;;;2.00;;
29550;SDS011;16488;52.396;10.696;2023-05-10T15:12:09;5.13;;;1.98;;
29550;SDS011;16488;52.396;10.696;2023-05-10T15:14:35;3.78;;;1.73;;
29550;SDS011;16488;52.396;10.696;2023-05-10T15:17:02;2.67;;;1.77;;
29550;SDS011;16488;52.396;10.696;2023-05-10T15:19:28;3.10;;;1.75;;